Time;durP1;ratioP1;P1;durP2;ratioP2;P2;SDS_P1;SDS_P2;PMS_P1;PMS_P2;Temp;Humidity;BMP_temperature;BMP_pressure;BME280_temperature;BME280_humidity;BME280_pressure;Samples;Min_cycle;Max_cycle;Signal;HPM_P1;HPM_P2
2022/10/26 00:00:45;;;;;;;4.50;3.60;;;;;;;16.99;62.15;97478.13;5048525;28;20418;-71
2022/10/26 00:03:11;;;;;;;8.17;3.17;;;;;;;16.97;62.32;97482.78;5054087;28;20471;-71
2022/10/26 00:05:36;;;;;;;10.63;3.53;;;;;;;16.93;62.47;97475.38;5055060;28;20677;-70
2022/10/26 00:08:02;;;;;;;11.93;4.27;;;;;;;16.95;62.63;97481.34;5057220;28;20214;-71
2022/10/26 00:10:27;;;;;;;10.20;3.97;;;;;;;16.97;62.48;97481.94;5049241;28;20217;-72
2022/10/26 00:12:53;;;;;;;6.33;3.80;;;;;;;16.96;62.60;97490.88;5054392;28;20210;-73
2022/10/26 00:15:19;;;;;;;7.17;3.80;;;;;;;16.94;62.45;97482.31;5058219;28;20193;-73
2022/10/26 00:17:46;;;;;;;9.80;3.70;;;;;;;16.95;62.69;97486.63;5051975;28;20175;-71
2022/10/26 00:20:12;;;;;;;12.93;3.73;;;;;;;16.95;62.81;97482.13;5052455;28;20433;-72
2022/10/26 00:22:37;;;;;;;6.33;3.47;;;;;;;16.92;62.80;97479.81;5053932;28;20468;-72
2022/10/26 00:25:03;;;;;;;7.73;3.97;;;;;;;16.94;62.98;97484.94;5052803;28;20440;-73
2022/10/26 00:27:29;;;;;;;10.57;3.50;;;;;;;16.93;62.70;97476.19;5049074;28;20207;-70
2022/10/26 00:29:54;;;;;;;5.13;3.30;;;;;;;16.92;63.03;97479.00;5054102;28;20427;-70
2022/10/26 00:32:20;;;;;;;7.97;3.73;;;;;;;16.89;63.15;97480.19;5052198;28;20195;-72
2022/10/26 00:34:45;;;;;;;12.87;3.43;;;;;;;16.88;63.28;97475.94;5047802;28;20599;-71
2022/10/26 00:37:10;;;;;;;8.70;2.93;;;;;;;16.91;63.47;97477.38;5054708;28;20308;-71
2022/10/26 00:39:36;;;;;;;9.97;4.03;;;;;;;16.88;63.50;97486.50;5050487;28;20179;-70
2022/10/26 00:42:01;;;;;;;7.80;3.80;;;;;;;16.89;63.56;97482.84;5041174;28;20625;-72
2022/10/26 00:44:42;;;;;;;8.03;4.10;;;;;;;16.91;63.54;97486.13;5050650;28;20182;-71
2022/10/26 00:47:14;;;;;;;10.83;4.83;;;;;;;16.90;63.67;97484.47;5052108;28;20213;-71
2022/10/26 00:49:40;;;;;;;10.20;4.50;;;;;;;16.88;63.91;97486.50;5050416;28;20467;-71
2022/10/26 00:52:06;;;;;;;7.80;4.73;;;;;;;16.94;63.88;97485.78;5052833;28;20433;-72
2022/10/26 00:54:31;;;;;;;12.23;4.60;;;;;;;16.96;63.86;97489.06;5048959;28;20203;-72
2022/10/26 00:56:57;;;;;;;14.70;5.00;;;;;;;16.97;63.73;97480.13;5042688;28;20418;-72
2022/10/26 00:59:23;;;;;;;7.17;3.87;;;;;;;16.97;63.78;97482.78;5046192;28;20197;-72
2022/10/26 01:01:49;;;;;;;6.70;3.77;;;;;;;16.97;64.00;97482.78;5053206;28;20336;-71
2022/10/26 01:04:15;;;;;;;6.30;4.37;;;;;;;16.98;64.06;97476.47;5053089;28;20186;-72
2022/10/26 01:06:41;;;;;;;5.53;3.53;;;;;;;16.97;63.90;97485.41;5051260;28;20461;-71
2022/10/26 01:09:06;;;;;;;8.17;3.90;;;;;;;16.97;63.92;97474.84;5052012;28;20479;-71
2022/10/26 01:11:32;;;;;;;8.57;4.07;;;;;;;16.97;63.84;97472.19;5051324;28;20438;-71
2022/10/26 01:13:59;;;;;;;6.43;3.30;;;;;;;17.01;63.60;97472.63;5059939;28;20194;-72
2022/10/26 01:16:50;;;;;;;5.67;3.17;;;;;;;16.93;63.21;97468.22;5045668;28;20713;-72
2022/10/26 01:19:56;;;;;;;8.33;3.50;;;;;;;16.95;63.70;97463.59;5050149;28;20845;-71
2022/10/26 01:22:58;;;;;;;7.37;2.90;;;;;;;16.97;63.71;97458.13;5039043;28;21018;-72
2022/10/26 01:25:49;;;;;;;6.33;2.90;;;;;;;16.94;63.76;97454.03;5052136;28;20413;-72
2022/10/26 01:28:45;;;;;;;5.53;2.60;;;;;;;16.94;63.40;97459.31;5051678;28;20444;-72
2022/10/26 01:31:16;;;;;;;3.40;3.07;;;;;;;16.90;63.07;97447.41;5052519;28;21100;-73
2022/10/26 01:33:46;;;;;;;5.17;2.77;;;;;;;16.94;63.41;97448.72;5051471;28;20512;-72
2022/10/26 01:36:57;;;;;;;6.13;3.13;;;;;;;16.95;63.48;97445.06;5055790;28;20964;-72
2022/10/26 01:39:37;;;;;;;7.17;2.97;;;;;;;16.98;63.29;97435.94;5034378;28;20430;-72
2022/10/26 01:42:04;;;;;;;5.13;2.90;;;;;;;16.95;63.42;97446.91;5057319;28;20437;-72
2022/10/26 01:44:33;;;;;;;6.00;2.10;;;;;;;16.79;62.85;97439.97;5051140;28;20433;-71
2022/10/26 01:47:00;;;;;;;5.97;2.83;;;;;;;16.86;63.08;97435.59;5050279;28;20795;-71
2022/10/26 01:49:28;;;;;;;10.57;3.70;;;;;;;16.94;63.41;97447.91;5048069;28;20882;-71
2022/10/26 01:51:53;;;;;;;5.10;2.70;;;;;;;16.95;63.71;97460.97;5051191;28;20469;-70
2022/10/26 01:54:19;;;;;;;5.47;2.73;;;;;;;16.97;63.82;97453.66;5052162;28;20406;-72
2022/10/26 01:56:49;;;;;;;4.40;2.50;;;;;;;16.91;64.42;97443.78;5050240;28;20703;-73
2022/10/26 01:59:25;;;;;;;7.97;3.13;;;;;;;16.84;64.59;97449.00;5051784;28;20171;-72
2022/10/26 02:02:13;;;;;;;11.13;3.37;;;;;;;16.80;64.62;97449.56;5051280;28;20499;-72
2022/10/26 02:05:01;;;;;;;8.47;3.57;;;;;;;16.79;64.77;97439.97;5034607;28;20975;-71
2022/10/26 02:07:39;;;;;;;5.83;3.30;;;;;;;16.78;64.84;97433.03;5050190;28;20450;-71
2022/10/26 02:10:30;;;;;;;4.27;2.97;;;;;;;16.80;64.88;97431.03;5050868;28;20417;-72
2022/10/26 02:13:08;;;;;;;3.67;2.43;;;;;;;16.79;64.93;97416.16;5051601;28;20475;-72
2022/10/26 02:15:58;;;;;;;5.77;2.90;;;;;;;16.81;64.76;97422.06;5044763;28;20445;-71
2022/10/26 02:18:26;;;;;;;8.63;2.43;;;;;;;16.83;64.70;97426.16;5049061;28;20925;-72
2022/10/26 02:20:55;;;;;;;5.20;2.73;;;;;;;16.83;64.36;97436.75;5051623;28;20433;-71
2022/10/26 02:23:22;;;;;;;6.20;2.60;;;;;;;16.83;64.47;97435.94;5050323;28;20421;-72
2022/10/26 02:25:53;;;;;;;7.87;2.70;;;;;;;16.82;64.09;97434.31;5050566;28;20795;-71
2022/10/26 02:28:21;;;;;;;8.37;2.60;;;;;;;16.85;63.56;97440.03;5049043;28;20449;-72
2022/10/26 02:30:47;;;;;;;8.27;2.40;;;;;;;16.84;62.93;97448.19;5054368;28;20413;-71
2022/10/26 02:33:14;;;;;;;8.93;2.93;;;;;;;16.85;62.88;97447.19;5049917;28;20829;-72
2022/10/26 02:35:41;;;;;;;3.17;2.20;;;;;;;16.89;62.65;97448.44;5051803;28;20440;-71
2022/10/26 02:38:09;;;;;;;7.63;3.07;;;;;;;16.91;62.46;97453.56;5052345;28;20798;-71
2022/10/26 02:40:36;;;;;;;3.80;2.00;;;;;;;16.90;62.50;97455.38;5052712;28;20425;-72
2022/10/26 02:43:09;;;;;;;8.07;2.10;;;;;;;16.96;62.52;97451.19;5054666;28;20440;-72
2022/10/26 02:45:43;;;;;;;4.57;2.40;;;;;;;16.95;62.19;97453.00;5042306;28;20929;-71
2022/10/26 02:48:09;;;;;;;3.90;2.10;;;;;;;16.99;62.01;97451.66;5046832;28;20449;-71
2022/10/26 02:50:47;;;;;;;5.30;2.40;;;;;;;17.00;62.17;97449.81;5051515;28;20917;-70
2022/10/26 02:53:24;;;;;;;6.20;2.30;;;;;;;17.02;62.57;97459.19;5047455;28;20194;-71
2022/10/26 02:55:50;;;;;;;7.30;2.47;;;;;;;17.02;62.43;97453.91;5047560;28;20515;-72
2022/10/26 02:58:27;;;;;;;5.63;2.60;;;;;;;16.98;62.82;97455.31;5046647;28;20426;-72
2022/10/26 03:00:53;;;;;;;4.70;2.40;;;;;;;17.02;62.94;97455.75;5050069;28;20825;-72
2022/10/26 03:03:19;;;;;;;8.57;2.47;;;;;;;17.02;62.53;97466.31;5050847;28;20475;-71
2022/10/26 03:05:44;;;;;;;2.93;2.10;;;;;;;17.00;61.91;97463.88;5050903;28;20175;-72
2022/10/26 03:08:10;;;;;;;6.60;2.20;;;;;;;17.03;61.61;97462.69;5049961;28;20274;-71
2022/10/26 03:10:40;;;;;;;3.93;2.60;;;;;;;17.02;61.92;97472.44;5049691;28;20171;-71
2022/10/26 03:13:05;;;;;;;3.10;2.53;;;;;;;17.04;61.99;97470.41;5047318;28;20195;-71
2022/10/26 03:15:30;;;;;;;6.20;2.57;;;;;;;17.06;62.19;97466.78;5059210;28;20865;-72
2022/10/26 03:17:56;;;;;;;4.10;2.30;;;;;;;17.08;62.51;97480.66;5050484;28;20261;-72
2022/10/26 03:20:21;;;;;;;4.47;2.30;;;;;;;17.07;62.19;97485.13;5050794;28;20228;-73
2022/10/26 03:22:47;;;;;;;4.07;2.17;;;;;;;17.03;61.84;97481.22;5050610;28;20391;-71
2022/10/26 03:25:14;;;;;;;2.80;2.47;;;;;;;17.06;61.91;97485.31;5050433;28;20198;-71
2022/10/26 03:27:40;;;;;;;6.20;2.80;;;;;;;17.07;62.36;97486.94;5049738;28;20324;-71
2022/10/26 03:30:06;;;;;;;5.73;2.13;;;;;;;17.07;62.15;97492.25;5049187;28;20436;-71
2022/10/26 03:32:31;;;;;;;9.80;2.57;;;;;;;17.07;62.33;97510.78;5045311;28;20230;-72
2022/10/26 03:34:57;;;;;;;5.67;2.90;;;;;;;17.04;62.12;97504.03;5050238;28;21039;-71
2022/10/26 03:37:22;;;;;;;9.80;2.63;;;;;;;17.07;62.19;97500.19;5043002;28;20604;-73
2022/10/26 03:39:48;;;;;;;3.37;2.50;;;;;;;17.06;62.43;97501.19;5030899;28;20175;-72
2022/10/26 03:42:13;;;;;;;9.33;2.33;;;;;;;17.07;62.23;97498.38;5058953;28;20207;-72
2022/10/26 03:44:38;;;;;;;11.93;2.47;;;;;;;17.11;61.98;97496.97;5060876;28;20642;-71
2022/10/26 03:47:04;;;;;;;5.70;2.33;;;;;;;17.06;61.75;97509.97;5059309;28;20207;-71
2022/10/26 03:49:29;;;;;;;6.73;1.97;;;;;;;17.12;61.78;97492.50;5061522;28;20181;-71
2022/10/26 03:51:55;;;;;;;4.20;2.17;;;;;;;17.20;61.67;97495.03;5063174;28;20968;-71
2022/10/26 03:54:20;;;;;;;5.93;2.17;;;;;;;17.25;61.42;97491.81;5065040;28;20171;-72
2022/10/26 03:56:46;;;;;;;5.77;2.13;;;;;;;17.29;61.38;97485.94;5043623;28;20266;-73
2022/10/26 03:59:11;;;;;;;4.50;2.70;;;;;;;17.33;60.99;97487.22;5064641;28;20188;-72
2022/10/26 04:01:37;;;;;;;4.23;2.03;;;;;;;17.35;61.03;97479.09;5056998;28;20202;-72
2022/10/26 04:04:03;;;;;;;6.97;2.27;;;;;;;17.35;60.98;97471.97;5054496;28;20174;-72
2022/10/26 04:06:28;;;;;;;4.27;1.90;;;;;;;17.40;61.06;97463.44;5052335;28;20789;-72
2022/10/26 04:08:57;;;;;;;3.07;1.70;;;;;;;17.43;60.86;97460.44;5051586;28;20232;-70
2022/10/26 04:11:23;;;;;;;3.57;2.10;;;;;;;17.47;60.93;97458.22;5050727;28;20284;-73
2022/10/26 04:13:48;;;;;;;6.50;2.57;;;;;;;17.52;60.70;97455.78;5059915;28;20516;-71
2022/10/26 04:16:13;;;;;;;4.90;2.10;;;;;;;17.56;60.69;97467.66;5056214;28;20211;-71
2022/10/26 04:18:39;;;;;;;4.27;2.13;;;;;;;17.56;60.59;97461.56;5064032;28;20205;-71
2022/10/26 04:21:04;;;;;;;5.70;2.73;;;;;;;17.57;60.47;97469.31;5060116;28;20229;-71
2022/10/26 04:23:30;;;;;;;4.00;2.10;;;;;;;17.60;60.57;97462.78;5060403;28;20228;-71
2022/10/26 04:25:55;;;;;;;6.50;2.63;;;;;;;17.60;61.01;97458.34;5062832;28;20218;-71
2022/10/26 04:28:20;;;;;;;2.97;2.30;;;;;;;17.57;60.81;97460.53;5064236;28;20190;-71
2022/10/26 04:30:46;;;;;;;3.00;2.30;;;;;;;17.60;61.16;97466.28;5063689;28;20183;-72
2022/10/26 04:33:12;;;;;;;3.73;2.40;;;;;;;17.61;61.19;97481.16;5049513;28;20654;-72
2022/10/26 04:35:37;;;;;;;9.97;2.23;;;;;;;17.49;61.77;97488.00;5063364;28;20190;-71
2022/10/26 04:38:04;;;;;;;8.20;2.20;;;;;;;17.45;61.98;97476.13;5056578;28;20231;-71
2022/10/26 04:40:31;;;;;;;14.83;2.40;;;;;;;17.47;62.25;97466.16;5045032;28;20202;-71
2022/10/26 04:42:57;;;;;;;5.73;2.30;;;;;;;17.47;62.70;97479.41;5059471;28;20451;-72
2022/10/26 04:45:22;;;;;;;21.63;2.83;;;;;;;17.47;62.72;97469.63;5060610;28;20771;-72
2022/10/26 04:48:02;;;;;;;3.17;2.30;;;;;;;17.49;62.75;97470.25;5057654;28;20571;-73
2022/10/26 04:50:28;;;;;;;3.23;2.37;;;;;;;17.50;62.96;97473.75;5062840;28;20274;-73
2022/10/26 04:52:53;;;;;;;3.60;2.60;;;;;;;17.50;62.87;97469.25;5051602;28;20540;-72
2022/10/26 04:55:18;;;;;;;7.47;2.50;;;;;;;17.48;63.17;97465.97;5056032;28;20179;-72
2022/10/26 04:57:44;;;;;;;4.10;2.30;;;;;;;17.48;63.15;97463.31;5065981;28;20255;-72
2022/10/26 05:00:11;;;;;;;4.87;2.17;;;;;;;17.47;63.56;97466.97;5068608;28;20178;-72
2022/10/26 05:02:36;;;;;;;3.07;2.30;;;;;;;17.49;63.64;97472.09;5053768;28;20449;-71
2022/10/26 05:05:01;;;;;;;4.50;2.23;;;;;;;17.48;63.56;97481.06;5067652;28;20494;-71
2022/10/26 05:07:27;;;;;;;7.93;2.40;;;;;;;17.44;63.61;97479.78;5064859;28;20209;-72
2022/10/26 05:09:52;;;;;;;10.80;2.60;;;;;;;17.48;63.41;97475.75;5055159;28;20202;-72
2022/10/26 05:12:18;;;;;;;5.40;2.20;;;;;;;17.51;63.39;97475.38;5065626;28;20350;-72
2022/10/26 05:14:43;;;;;;;6.27;2.30;;;;;;;17.49;63.27;97472.09;5058827;28;20568;-73
2022/10/26 05:17:09;;;;;;;4.93;2.30;;;;;;;17.49;63.40;97464.16;5066518;28;20219;-72
2022/10/26 05:19:34;;;;;;;4.43;2.20;;;;;;;17.55;63.05;97476.63;5061685;28;20717;-72
2022/10/26 05:21:59;;;;;;;6.30;2.27;;;;;;;17.53;62.93;97478.63;5066914;28;20757;-72
2022/10/26 05:24:25;;;;;;;5.20;2.00;;;;;;;17.55;62.87;97484.56;5066375;28;20206;-71
2022/10/26 05:26:50;;;;;;;3.77;2.07;;;;;;;17.59;62.98;97491.13;5057115;28;20215;-71
2022/10/26 05:29:16;;;;;;;4.03;2.40;;;;;;;17.61;62.81;97496.22;5060173;28;20186;-70
2022/10/26 05:31:41;;;;;;;6.00;2.00;;;;;;;17.63;62.90;97494.22;5060030;28;20236;-72
2022/10/26 05:34:07;;;;;;;6.47;2.43;;;;;;;17.65;62.79;97498.31;5069040;28;20277;-71
2022/10/26 05:36:32;;;;;;;4.73;2.37;;;;;;;17.63;62.79;97494.22;5054886;28;20179;-70
2022/10/26 05:38:58;;;;;;;8.00;2.00;;;;;;;17.58;62.70;97496.63;5053182;28;20651;-71
2022/10/26 05:41:24;;;;;;;9.77;2.27;;;;;;;17.59;62.66;97492.94;5057794;28;20723;-71
2022/10/26 05:43:49;;;;;;;3.53;2.13;;;;;;;17.56;62.78;97488.06;5059699;28;20225;-71
2022/10/26 05:46:15;;;;;;;3.10;2.20;;;;;;;17.59;62.79;97491.13;5063899;28;20233;-71
2022/10/26 05:48:41;;;;;;;5.10;2.20;;;;;;;17.60;62.77;97489.28;5053006;28;20186;-71
2022/10/26 05:51:06;;;;;;;6.57;2.10;;;;;;;17.61;62.59;97499.72;5062481;28;20611;-71
2022/10/26 05:53:31;;;;;;;4.30;2.03;;;;;;;17.61;62.47;97501.53;5069947;28;20565;-71
2022/10/26 05:55:57;;;;;;;2.93;2.00;;;;;;;17.63;62.42;97505.66;5052331;28;20202;-73
2022/10/26 05:58:23;;;;;;;4.70;2.07;;;;;;;17.65;62.48;97498.31;5042511;28;20186;-72
2022/10/26 06:01:00;;;;;;;7.57;2.63;;;;;;;17.64;62.33;97504.63;5053035;28;20606;-72
2022/10/26 06:03:57;;;;;;;3.50;2.03;;;;;;;17.66;62.43;97505.25;5055335;28;20593;-74
2022/10/26 06:06:22;;;;;;;3.63;2.07;;;;;;;17.68;62.12;97512.19;5042638;28;20561;-72
2022/10/26 06:08:48;;;;;;;5.90;2.30;;;;;;;17.69;62.23;97513.84;5055487;28;20662;-73
2022/10/26 06:11:14;;;;;;;8.30;2.20;;;;;;;17.70;62.15;97521.63;5059002;28;20211;-72
2022/10/26 06:13:39;;;;;;;2.70;2.00;;;;;;;17.74;61.89;97533.47;5053547;28;20193;-73
2022/10/26 06:16:04;;;;;;;3.10;2.07;;;;;;;17.74;61.88;97530.00;5063533;28;20207;-72
2022/10/26 06:18:47;;;;;;;3.10;2.00;;;;;;;17.72;61.80;97547.91;5061376;28;20188;-73
2022/10/26 06:21:47;;;;;;;9.90;2.47;;;;;;;17.78;61.49;97555.94;5043465;28;20204;-73
2022/10/26 06:24:37;;;;;;;4.57;1.90;;;;;;;17.75;61.69;97566.09;5029451;28;20793;-73
2022/10/26 06:27:08;;;;;;;4.57;1.73;;;;;;;17.75;61.54;97558.97;5052172;28;20828;-73
2022/10/26 06:30:00;;;;;;;3.27;2.10;;;;;;;17.75;61.88;97574.06;5054864;28;20421;-74
2022/10/26 06:32:26;;;;;;;4.07;2.20;;;;;;;17.83;61.81;97573.91;5046974;28;20444;-74
2022/10/26 06:35:15;;;;;;;5.40;2.00;;;;;;;17.79;62.17;97577.94;5050494;28;20441;-74
2022/10/26 06:37:44;;;;;;;6.63;2.30;;;;;;;17.80;62.32;97574.28;5046263;28;20175;-74
2022/10/26 06:40:11;;;;;;;4.57;2.00;;;;;;;17.83;62.17;97573.91;5047238;28;20464;-73
2022/10/26 06:42:36;;;;;;;5.83;2.40;;;;;;;17.83;62.51;97586.38;5055629;28;20440;-74
2022/10/26 06:45:02;;;;;;;2.90;2.20;;;;;;;17.86;62.29;97589.47;5047527;28;20919;-74
2022/10/26 06:47:55;;;;;;;4.63;2.40;;;;;;;17.88;62.36;97586.59;5051019;28;20214;-73
2022/10/26 06:50:29;;;;;;;6.30;2.47;;;;;;;17.85;62.69;97587.81;5063138;28;20194;-74
2022/10/26 06:52:58;;;;;;;6.23;2.10;;;;;;;17.90;62.70;97595.19;5052974;28;20446;-74
2022/10/26 06:55:25;;;;;;;3.77;2.40;;;;;;;17.85;62.99;97593.13;5053628;28;20423;-73
2022/10/26 06:57:51;;;;;;;4.20;2.13;;;;;;;17.91;63.08;97602.13;5039409;28;20885;-74
2022/10/26 07:00:21;;;;;;;3.40;2.30;;;;;;;17.86;63.24;97600.06;5034562;28;20480;-74
2022/10/26 07:02:48;;;;;;;10.73;2.30;;;;;;;17.79;63.34;97609.75;5033964;28;20617;-74
2022/10/26 07:05:13;;;;;;;2.90;2.20;;;;;;;17.85;63.03;97609.03;5034827;28;20468;-73
2022/10/26 07:07:44;;;;;;;8.83;2.63;;;;;;;17.84;62.96;97604.72;5033766;28;20945;-74
2022/10/26 07:10:10;;;;;;;4.67;2.10;;;;;;;17.94;62.74;97610.53;5039144;28;20202;-74
2022/10/26 07:12:36;;;;;;;5.13;2.07;;;;;;;17.94;62.55;97617.69;5038045;28;20957;-73
2022/10/26 07:15:01;;;;;;;11.50;2.50;;;;;;;18.01;62.43;97615.13;5033453;28;20437;-73
2022/10/26 07:17:27;;;;;;;7.07;2.57;;;;;;;18.00;62.49;97618.78;5034842;28;20185;-72
2022/10/26 07:19:53;;;;;;;2.70;1.97;;;;;;;18.07;62.12;97622.28;5034825;28;20241;-73
2022/10/26 07:22:19;;;;;;;5.87;2.20;;;;;;;18.09;61.99;97625.59;5035567;28;20438;-73
2022/10/26 07:24:48;;;;;;;8.67;2.77;;;;;;;18.15;61.91;97630.13;5036093;28;20498;-73
2022/10/26 07:27:14;;;;;;;6.40;2.50;;;;;;;18.15;61.95;97631.97;5033546;28;20246;-73
2022/10/26 07:29:39;;;;;;;4.97;2.47;;;;;;;18.21;61.88;97631.22;5035032;28;20458;-74
2022/10/26 07:32:05;;;;;;;9.23;2.50;;;;;;;18.19;61.88;97641.19;5037144;28;20214;-72
2022/10/26 07:34:30;;;;;;;5.80;2.50;;;;;;;18.25;61.63;97641.25;5015744;28;20667;-73
2022/10/26 07:36:58;;;;;;;6.73;2.60;;;;;;;18.31;61.26;97639.66;5039253;28;20254;-73
2022/10/26 07:39:23;;;;;;;6.80;2.57;;;;;;;18.26;61.47;97648.19;5048110;28;20812;-73
2022/10/26 07:41:49;;;;;;;7.27;2.30;;;;;;;18.27;61.57;97644.50;5050112;28;20480;-73
2022/10/26 07:44:14;;;;;;;6.37;2.80;;;;;;;18.37;61.43;97648.69;5050582;28;20219;-73
2022/10/26 07:46:40;;;;;;;3.67;2.50;;;;;;;18.42;61.26;97657.72;5056216;28;21119;-73
2022/10/26 07:49:05;;;;;;;13.13;2.77;;;;;;;18.46;61.27;97658.13;5041741;28;20726;-73
2022/10/26 07:51:31;;;;;;;3.67;2.70;;;;;;;18.48;61.21;97666.75;5062064;28;20233;-74
2022/10/26 07:53:56;;;;;;;9.43;2.80;;;;;;;18.53;61.13;97659.00;5067221;28;20190;-73
2022/10/26 07:56:21;;;;;;;3.70;2.17;;;;;;;18.57;61.06;97662.13;5062632;28;20201;-72
2022/10/26 07:58:47;;;;;;;6.23;2.40;;;;;;;18.59;60.94;97668.03;5069836;28;20188;-72
2022/10/26 08:01:14;;;;;;;7.90;3.40;;;;;;;18.67;61.14;97665.25;5062521;28;20218;-73
2022/10/26 08:03:39;;;;;;;8.03;3.23;;;;;;;18.76;61.63;97665.09;5061642;28;20551;-72
2022/10/26 08:06:06;;;;;;;4.97;2.10;;;;;;;18.82;61.34;97667.78;5059328;28;20538;-74
2022/10/26 08:08:32;;;;;;;11.27;2.77;;;;;;;18.81;60.92;97668.81;5052463;28;20192;-74
2022/10/26 08:10:58;;;;;;;4.40;2.23;;;;;;;18.86;60.97;97669.06;5059950;28;20433;-73
2022/10/26 08:13:23;;;;;;;4.57;2.37;;;;;;;18.81;60.59;97666.16;5056343;28;20209;-74
2022/10/26 08:15:48;;;;;;;9.50;2.27;;;;;;;18.85;60.30;97666.59;5051538;28;20187;-74
2022/10/26 08:18:14;;;;;;;3.80;2.50;;;;;;;18.83;60.53;97664.13;5058444;28;20266;-75
2022/10/26 08:20:39;;;;;;;4.80;2.50;;;;;;;18.87;60.23;97659.25;5043762;28;20188;-74
2022/10/26 08:23:05;;;;;;;4.37;2.63;;;;;;;18.85;60.50;97655.97;5057757;28;20729;-74
2022/10/26 08:25:33;;;;;;;11.43;2.20;;;;;;;18.85;60.64;97672.72;5052980;28;20179;-74
2022/10/26 08:28:03;;;;;;;9.43;2.40;;;;;;;18.87;60.46;97672.53;5042283;28;20273;-74
2022/10/26 08:30:31;;;;;;;7.53;2.97;;;;;;;18.92;60.50;97675.44;5057640;28;20429;-75
2022/10/26 08:32:58;;;;;;;4.00;2.60;;;;;;;18.96;60.38;97667.91;5051571;28;20452;-73
2022/10/26 08:35:24;;;;;;;3.20;2.60;;;;;;;18.97;60.40;97664.25;5045780;28;20446;-73
2022/10/26 08:37:51;;;;;;;9.20;2.70;;;;;;;18.89;60.67;97667.84;5041708;28;20421;-73
2022/10/26 08:40:17;;;;;;;5.43;2.00;;;;;;;18.98;60.54;97665.88;5040298;28;20275;-73
2022/10/26 08:42:45;;;;;;;6.60;2.40;;;;;;;18.98;60.59;97669.34;5051668;28;20441;-73
2022/10/26 08:45:27;;;;;;;5.40;2.90;;;;;;;18.92;60.62;97671.94;5051011;28;20444;-75
2022/10/26 08:47:56;;;;;;;7.30;2.40;;;;;;;18.95;60.94;97676.91;5050333;28;20552;-73
2022/10/26 08:50:27;;;;;;;6.43;2.60;;;;;;;18.97;60.52;97675.69;5065528;28;20486;-73
2022/10/26 08:53:02;;;;;;;4.93;2.67;;;;;;;18.98;60.77;97681.81;5066172;28;20513;-74
2022/10/26 08:55:37;;;;;;;7.43;3.03;;;;;;;19.03;60.38;97682.03;5067771;28;20547;-74
2022/10/26 08:58:04;;;;;;;7.60;3.07;;;;;;;19.04;60.26;97689.00;5067752;28;20423;-71
2022/10/26 09:00:30;;;;;;;15.73;3.13;;;;;;;19.16;60.13;97690.09;5061746;28;20516;-73
2022/10/26 09:02:55;;;;;;;8.20;2.30;;;;;;;19.27;59.89;97693.25;5060958;28;21170;-73
2022/10/26 09:05:23;;;;;;;6.33;2.43;;;;;;;19.27;59.81;97695.91;5063373;28;20172;-73
2022/10/26 09:08:15;;;;;;;3.00;2.10;;;;;;;19.37;59.67;97699.00;5061297;28;20210;-73
2022/10/26 09:10:55;;;;;;;5.40;2.57;;;;;;;19.48;59.70;97701.09;5065241;28;20432;-73
2022/10/26 09:13:42;;;;;;;7.70;2.03;;;;;;;19.63;59.58;97698.31;5059208;28;20424;-73
2022/10/26 09:16:31;;;;;;;2.87;2.10;;;;;;;19.73;59.16;97703.25;5056465;28;20489;-73
2022/10/26 09:19:17;;;;;;;9.50;2.60;;;;;;;19.82;58.97;97708.38;5056028;28;20433;-74
2022/10/26 09:22:06;;;;;;;10.40;2.53;;;;;;;19.92;58.83;97708.84;5052169;28;20897;-74
2022/10/26 09:24:33;;;;;;;7.60;2.47;;;;;;;19.96;58.45;97715.44;5052746;28;20424;-74
2022/10/26 09:27:05;;;;;;;6.10;2.57;;;;;;;20.03;58.22;97704.81;5055651;28;20449;-74
2022/10/26 09:29:35;;;;;;;10.13;2.97;;;;;;;20.14;57.62;97716.72;5056827;28;20431;-74
2022/10/26 09:32:02;;;;;;;5.53;2.60;;;;;;;20.30;57.50;97718.16;5061412;28;20943;-75
2022/10/26 09:34:38;;;;;;;4.90;2.40;;;;;;;20.64;57.27;97722.50;5050776;28;20878;-75
2022/10/26 09:37:24;;;;;;;3.13;2.57;;;;;;;20.95;56.76;97723.75;5043774;28;20446;-73
2022/10/26 09:40:05;;;;;;;6.10;2.60;;;;;;;21.53;55.36;97726.69;5058899;28;20416;-74
2022/10/26 09:42:50;;;;;;;7.30;2.53;;;;;;;22.05;52.57;97732.06;5056306;28;20440;-75
2022/10/26 09:45:21;;;;;;;7.57;2.43;;;;;;;22.64;51.08;97734.59;5050338;28;20426;-75
2022/10/26 09:47:51;;;;;;;9.50;2.60;;;;;;;23.23;49.83;97723.59;5038447;28;20622;-73
2022/10/26 09:50:16;;;;;;;9.50;2.53;;;;;;;23.77;48.41;97732.69;5061339;28;20452;-73
2022/10/26 09:52:42;;;;;;;8.43;2.77;;;;;;;24.28;46.33;97727.09;5064759;28;20475;-74
2022/10/26 09:55:11;;;;;;;4.63;1.93;;;;;;;24.72;45.71;97726.88;5069030;28;20301;-74
2022/10/26 09:57:39;;;;;;;6.03;2.13;;;;;;;25.26;44.01;97729.44;5065718;28;20265;-74
2022/10/26 10:00:05;;;;;;;5.90;2.30;;;;;;;25.49;43.50;97740.41;5068585;28;20433;-74
2022/10/26 10:02:38;;;;;;;5.80;2.00;;;;;;;25.48;43.03;97728.03;5064229;28;20445;-75
2022/10/26 10:05:31;;;;;;;6.13;1.93;;;;;;;25.17;43.50;97738.06;5066303;28;20424;-73
2022/10/26 10:08:16;;;;;;;7.13;2.37;;;;;;;24.79;44.04;97748.19;5059168;28;20468;-75
2022/10/26 10:10:54;;;;;;;8.70;2.50;;;;;;;24.51;44.43;97747.75;5059690;28;20470;-75
2022/10/26 10:13:20;;;;;;;6.57;2.10;;;;;;;24.23;45.13;97751.03;5064553;28;20913;-74
2022/10/26 10:16:13;;;;;;;10.30;2.60;;;;;;;23.90;45.72;97753.09;5066412;28;20474;-75
2022/10/26 10:18:40;;;;;;;10.90;2.17;;;;;;;23.77;46.05;97756.75;5039062;28;20440;-75
2022/10/26 10:21:06;;;;;;;9.63;2.33;;;;;;;23.81;46.64;97767.81;5057792;28;20448;-75
2022/10/26 10:23:33;;;;;;;4.20;2.33;;;;;;;24.24;46.87;97768.75;5067141;28;20501;-73
2022/10/26 10:26:01;;;;;;;4.93;2.17;;;;;;;24.64;45.43;97762.81;5065039;28;20449;-75
2022/10/26 10:28:27;;;;;;;9.20;2.47;;;;;;;25.06;44.54;97761.16;5065737;28;20470;-74
2022/10/26 10:30:58;;;;;;;8.60;2.00;;;;;;;25.55;44.04;97766.28;5065827;28;20852;-75
2022/10/26 10:33:40;;;;;;;7.60;2.30;;;;;;;25.81;42.39;97772.19;5068576;28;20218;-74
2022/10/26 10:36:23;;;;;;;8.63;2.20;;;;;;;26.11;41.92;97769.31;5061328;28;20440;-73
2022/10/26 10:38:50;;;;;;;9.57;2.57;;;;;;;25.89;41.85;97778.00;5043472;28;20430;-74
2022/10/26 10:41:27;;;;;;;5.97;2.30;;;;;;;25.73;42.54;97770.69;5037368;28;20444;-75
2022/10/26 10:44:05;;;;;;;6.77;1.90;;;;;;;25.34;43.00;97776.53;5034532;28;20437;-73
2022/10/26 10:46:31;;;;;;;8.23;2.20;;;;;;;25.50;43.52;97764.31;5053177;28;20470;-75
2022/10/26 10:49:05;;;;;;;10.93;2.27;;;;;;;25.73;43.78;97768.00;5045871;28;20734;-74
2022/10/26 10:51:38;;;;;;;6.70;2.00;;;;;;;25.83;43.29;97767.41;5043507;28;20750;-73
2022/10/26 10:54:04;;;;;;;5.93;2.00;;;;;;;25.86;42.56;97761.56;5035778;28;20480;-72
2022/10/26 10:56:41;;;;;;;6.60;1.90;;;;;;;26.25;42.52;97767.16;5046776;28;20467;-73
2022/10/26 10:59:31;;;;;;;8.73;2.20;;;;;;;26.50;40.89;97777.53;5046593;28;20464;-73
2022/10/26 11:02:16;;;;;;;11.07;1.87;;;;;;;26.80;39.96;97792.59;5044890;28;20438;-73
2022/10/26 11:05:03;;;;;;;6.13;1.63;;;;;;;27.18;39.17;97786.72;5037859;28;20437;-73
2022/10/26 11:07:31;;;;;;;5.50;1.83;;;;;;;27.35;38.72;97779.44;5035613;28;20464;-73
2022/10/26 11:10:00;;;;;;;7.43;1.73;;;;;;;27.25;38.47;97793.56;5021221;28;20453;-74
2022/10/26 11:12:30;;;;;;;5.73;1.60;;;;;;;27.00;39.23;97787.81;5043928;28;20448;-74
2022/10/26 11:15:14;;;;;;;7.00;2.30;;;;;;;26.65;39.27;97786.94;5034087;28;20545;-74
2022/10/26 11:17:50;;;;;;;3.53;1.63;;;;;;;26.40;40.17;97788.13;5039540;28;20563;-74
2022/10/26 11:20:18;;;;;;;5.43;1.70;;;;;;;26.08;40.52;97783.22;5037563;28;20449;-74
2022/10/26 11:23:00;;;;;;;7.23;1.97;;;;;;;25.74;41.18;97780.38;5037582;28;20449;-74
2022/10/26 11:25:33;;;;;;;4.97;1.90;;;;;;;25.67;41.77;97780.50;5042404;28;20420;-74
2022/10/26 11:28:03;;;;;;;5.83;1.63;;;;;;;25.84;41.94;97783.25;5040478;28;20449;-74
2022/10/26 11:30:29;;;;;;;9.10;1.87;;;;;;;26.05;41.52;97786.38;5040969;28;20455;-75
2022/10/26 11:33:15;;;;;;;8.33;2.20;;;;;;;26.04;41.54;97787.41;5054316;28;20520;-74
2022/10/26 11:35:55;;;;;;;7.67;2.00;;;;;;;26.15;41.59;97786.59;5045601;28;20544;-75
2022/10/26 11:38:39;;;;;;;9.40;2.10;;;;;;;26.21;41.34;97790.97;5049471;28;20788;-74
2022/10/26 11:41:18;;;;;;;10.23;2.17;;;;;;;26.40;41.28;97798.88;5053899;28;20516;-73
2022/10/26 11:43:46;;;;;;;5.10;2.37;;;;;;;26.33;40.79;97798.22;5042417;28;20426;-74
2022/10/26 11:46:35;;;;;;;4.50;1.87;;;;;;;26.26;40.81;97798.34;5047288;28;20483;-73